createdAt,value
2023-05-31T07:59:17.775Z,31.10
2023-05-31T08:01:44.868Z,30.60
2023-05-31T08:04:13.203Z,30.50
2023-05-31T08:06:40.516Z,30.70
2023-05-31T08:09:07.750Z,30.90
2023-05-31T08:11:36.937Z,31.00
2023-05-31T08:14:07.168Z,30.70
2023-05-31T08:16:35.072Z,30.60
2023-05-31T08:19:02.019Z,30.40
2023-05-31T08:21:29.287Z,30.10
2023-05-31T08:23:56.568Z,30.30
2023-05-31T08:26:23.479Z,29.90
2023-05-31T08:28:50.793Z,30.30
2023-05-31T08:31:17.659Z,30.10
2023-05-31T08:33:58.701Z,29.40
2023-05-31T08:36:26.459Z,28.60
2023-05-31T08:38:53.422Z,28.00
2023-05-31T08:41:20.455Z,28.00
2023-05-31T08:43:47.566Z,28.20
2023-05-31T08:46:16.694Z,28.60
2023-05-31T08:49:03.135Z,28.90
2023-05-31T08:51:30.086Z,28.90
2023-05-31T08:53:58.666Z,28.90
2023-05-31T08:56:27.781Z,28.90
2023-05-31T08:58:55.623Z,28.80
2023-05-31T09:01:25.108Z,29.10
2023-05-31T09:03:54.892Z,29.30
2023-05-31T09:06:21.635Z,29.30
2023-05-31T09:08:50.175Z,29.00
2023-05-31T09:11:17.121Z,29.10
2023-05-31T09:13:43.926Z,29.70
2023-05-31T09:16:11.537Z,30.20
2023-05-31T09:18:40.423Z,30.70
2023-05-31T09:21:12.850Z,30.80
2023-05-31T09:23:55.487Z,31.10
2023-05-31T09:26:22.583Z,31.00
2023-05-31T09:28:50.742Z,31.50
2023-05-31T09:31:19.006Z,31.70
2023-05-31T09:33:48.937Z,31.40
2023-05-31T09:36:28.346Z,31.00
2023-05-31T09:39:08.994Z,31.10
2023-05-31T09:41:36.358Z,30.50
2023-05-31T09:44:03.539Z,30.50
2023-05-31T09:46:30.494Z,30.40
2023-05-31T09:49:07.106Z,30.30
2023-05-31T09:51:35.222Z,30.20
2023-05-31T09:54:08.400Z,30.10
2023-05-31T09:56:38.554Z,29.60
2023-05-31T09:59:06.440Z,29.30
2023-05-31T10:01:34.717Z,28.80
2023-05-31T10:04:05.815Z,28.30
2023-05-31T10:06:36.278Z,27.90
2023-05-31T10:09:08.392Z,27.40
2023-05-31T10:11:42.347Z,27.20
2023-05-31T10:14:15.441Z,27.30
2023-05-31T10:16:51.485Z,27.30
2023-05-31T10:19:25.431Z,27.10
2023-05-31T10:21:53.242Z,26.90
2023-05-31T10:24:32.448Z,26.80
2023-05-31T10:27:08.116Z,26.80
2023-05-31T10:29:39.736Z,26.50
2023-05-31T10:32:14.832Z,26.30
2023-05-31T10:34:42.624Z,26.40
2023-05-31T10:37:11.088Z,26.60
2023-05-31T10:40:00.782Z,26.80
2023-05-31T10:42:28.279Z,26.80
2023-05-31T10:45:07.439Z,26.80
2023-05-31T10:47:40.921Z,26.60
2023-05-31T10:50:08.081Z,26.70
2023-05-31T10:52:34.837Z,26.40
2023-05-31T10:55:23.032Z,26.30
2023-05-31T10:57:56.927Z,25.90
2023-05-31T11:00:24.958Z,25.80
2023-05-31T11:02:59.665Z,25.90
2023-05-31T11:05:28.659Z,25.80
2023-05-31T11:07:56.198Z,25.70
2023-05-31T11:10:27.845Z,25.50
2023-05-31T11:12:57.676Z,25.30
2023-05-31T11:15:43.239Z,25.00
2023-05-31T11:18:15.434Z,25.00
2023-05-31T11:20:42.835Z,25.00
2023-05-31T11:23:25.997Z,24.90
2023-05-31T11:26:18.714Z,24.80
2023-05-31T11:29:02.218Z,24.80
2023-05-31T11:31:51.337Z,24.80
2023-05-31T11:34:26.382Z,24.60
2023-05-31T11:36:53.667Z,24.70
2023-05-31T11:39:21.687Z,24.80
2023-05-31T11:41:48.458Z,24.90
2023-05-31T11:44:18.634Z,24.80
2023-05-31T11:46:47.476Z,24.80
2023-05-31T11:49:14.911Z,24.70
2023-05-31T11:51:45.824Z,24.60
2023-05-31T11:54:15.735Z,24.50
2023-05-31T11:56:42.655Z,24.40
2023-05-31T11:59:09.732Z,24.40
2023-05-31T12:01:37.758Z,24.40
2023-05-31T12:04:05.023Z,24.30
2023-05-31T12:06:32.790Z,24.20
2023-05-31T12:08:59.893Z,24.10
2023-05-31T12:11:28.875Z,24.00
2023-05-31T12:13:59.028Z,24.00
2023-05-31T12:16:28.269Z,23.90
2023-05-31T12:18:58.436Z,23.90
2023-05-31T12:21:25.617Z,23.90
2023-05-31T12:23:57.321Z,23.90
2023-05-31T12:26:24.445Z,23.80
2023-05-31T12:28:52.048Z,23.70
2023-05-31T12:31:26.658Z,23.80
2023-05-31T12:34:14.388Z,23.80
2023-05-31T12:36:49.281Z,23.80
2023-05-31T12:39:23.471Z,23.70
2023-05-31T12:41:51.498Z,23.70
2023-05-31T12:44:21.342Z,23.80
2023-05-31T12:46:49.947Z,23.80
2023-05-31T12:49:28.968Z,23.70
2023-05-31T12:52:02.873Z,23.60
2023-05-31T12:54:31.884Z,23.60
2023-05-31T12:57:00.864Z,23.60
2023-05-31T12:59:29.658Z,23.60
2023-05-31T13:01:57.051Z,23.60
2023-05-31T13:04:24.682Z,23.60
2023-05-31T13:06:51.543Z,23.60
2023-05-31T13:09:19.078Z,23.70
2023-05-31T13:11:49.981Z,23.70
2023-05-31T13:14:21.890Z,23.60
2023-05-31T13:16:51.943Z,23.60
2023-05-31T13:19:18.766Z,23.50
2023-05-31T13:21:45.531Z,23.50
2023-05-31T13:24:12.420Z,23.40
2023-05-31T13:26:39.296Z,23.30
2023-05-31T13:29:06.259Z,23.30
2023-05-31T13:31:33.329Z,23.30
2023-05-31T13:34:00.254Z,23.40
2023-05-31T13:36:27.164Z,23.30
2023-05-31T13:38:54.136Z,23.30
2023-05-31T13:41:23.045Z,23.30
2023-05-31T13:43:50.886Z,23.20
2023-05-31T13:46:18.954Z,23.20
2023-05-31T13:48:45.873Z,23.10
2023-05-31T13:51:13.257Z,23.00
2023-05-31T13:53:40.099Z,23.00
2023-05-31T13:56:10.725Z,22.90
2023-05-31T13:58:38.313Z,22.90
2023-05-31T14:01:08.922Z,22.90
2023-05-31T14:03:37.873Z,22.80
2023-05-31T14:06:05.016Z,22.70
2023-05-31T14:08:34.182Z,22.60
2023-05-31T14:11:36.533Z,22.60
2023-05-31T14:17:05.905Z,22.70
2023-05-31T14:22:26.419Z,22.70
2023-05-31T14:25:05.931Z,22.80
2023-05-31T14:27:41.559Z,22.80
2023-05-31T14:30:09.308Z,22.70
2023-05-31T14:36:28.193Z,22.70
2023-05-31T14:41:30.503Z,22.70
2023-05-31T14:43:57.322Z,22.70
2023-05-31T14:46:24.103Z,22.70
2023-05-31T14:48:52.249Z,22.70
2023-05-31T14:51:18.956Z,22.60
2023-05-31T14:53:45.813Z,22.60
2023-05-31T14:58:43.830Z,22.60
2023-05-31T15:01:10.863Z,22.60
2023-05-31T15:03:37.718Z,22.60
2023-05-31T15:06:04.693Z,22.60
2023-05-31T15:08:34.193Z,22.60
2023-05-31T15:11:02.117Z,22.60
2023-05-31T15:13:29.053Z,22.70
2023-05-31T15:15:56.460Z,22.70
2023-05-31T15:18:23.366Z,22.60
2023-05-31T15:20:50.752Z,22.60
2023-05-31T15:23:18.895Z,22.60
2023-05-31T15:25:46.007Z,22.60
2023-05-31T15:28:12.848Z,22.60
2023-05-31T15:30:40.285Z,22.60
2023-05-31T15:33:07.178Z,22.60
2023-05-31T15:35:36.853Z,22.60
2023-05-31T15:38:03.723Z,22.50
2023-05-31T15:40:30.620Z,22.50
2023-05-31T15:42:57.499Z,22.60
2023-05-31T15:45:24.250Z,22.60
2023-05-31T15:47:51.122Z,22.60
2023-05-31T15:50:17.939Z,22.60
2023-05-31T15:52:44.675Z,22.60
2023-05-31T15:55:11.493Z,22.70
2023-05-31T15:57:38.421Z,22.60
2023-05-31T16:00:06.222Z,22.70
2023-05-31T16:02:33.038Z,22.70
2023-05-31T16:05:00.226Z,22.70
2023-05-31T16:07:28.608Z,22.70
2023-05-31T16:09:55.632Z,22.70
2023-05-31T16:12:22.393Z,22.60
2023-05-31T16:14:49.631Z,22.60
2023-05-31T16:17:16.450Z,22.60
2023-05-31T16:19:43.282Z,22.60
2023-05-31T16:22:10.136Z,22.60
2023-05-31T16:24:36.958Z,22.60
2023-05-31T16:27:04.368Z,22.50
2023-05-31T16:29:31.569Z,22.50
2023-05-31T16:31:58.458Z,22.50
2023-05-31T16:34:25.330Z,22.50
2023-05-31T16:36:52.328Z,22.50
2023-05-31T16:39:19.056Z,22.50
2023-05-31T16:41:46.061Z,22.50
2023-05-31T16:44:13.041Z,22.50
2023-05-31T16:46:39.871Z,22.50
2023-05-31T16:49:06.693Z,22.40
2023-05-31T16:51:33.858Z,22.40
2023-05-31T16:54:00.874Z,22.40
2023-05-31T16:56:27.663Z,22.40
2023-05-31T16:58:54.500Z,22.40
2023-05-31T17:01:21.961Z,22.40
2023-05-31T17:03:49.228Z,22.40
2023-05-31T17:06:16.520Z,22.40
2023-05-31T17:08:43.363Z,22.30
2023-05-31T17:11:10.144Z,22.30
2023-05-31T17:13:36.985Z,22.20
2023-05-31T17:16:04.005Z,22.20
2023-05-31T17:18:31.201Z,22.20
2023-05-31T17:21:00.717Z,22.10
2023-05-31T17:23:27.447Z,22.10
2023-05-31T17:25:54.286Z,22.10
2023-05-31T17:28:21.129Z,22.00
2023-05-31T17:30:47.896Z,22.00
2023-05-31T17:33:14.786Z,22.00
2023-05-31T17:35:41.822Z,21.90
2023-05-31T17:38:08.578Z,21.90
2023-05-31T17:40:35.358Z,21.80
2023-05-31T17:43:02.179Z,21.80
2023-05-31T17:45:29.087Z,21.80
2023-05-31T17:47:55.946Z,21.70
2023-05-31T17:50:22.847Z,21.70
2023-05-31T17:52:49.662Z,21.70
2023-05-31T17:55:16.529Z,21.70
2023-05-31T17:57:45.016Z,21.60
2023-05-31T18:00:12.316Z,21.60
2023-05-31T18:02:39.134Z,21.60
2023-05-31T18:05:06.375Z,21.50
2023-05-31T18:07:33.240Z,21.40
2023-05-31T18:10:00.063Z,21.40
2023-05-31T18:12:26.937Z,21.30
2023-05-31T18:14:53.773Z,21.30
2023-05-31T18:17:22.351Z,21.30
2023-05-31T18:19:49.186Z,21.20
2023-05-31T18:22:16.258Z,21.20
2023-05-31T18:24:43.071Z,21.20
2023-05-31T18:27:28.758Z,21.10
2023-05-31T18:29:55.517Z,21.10
2023-05-31T18:32:22.441Z,21.00
2023-05-31T18:34:49.529Z,21.00
2023-05-31T18:37:17.161Z,21.00
2023-05-31T18:39:44.219Z,20.90
2023-05-31T18:42:11.556Z,20.90
2023-05-31T18:44:38.381Z,20.90
2023-05-31T18:47:06.249Z,20.80
2023-05-31T18:49:33.361Z,20.70
2023-05-31T18:52:00.243Z,20.70
2023-05-31T18:54:27.049Z,20.60
2023-05-31T18:57:01.798Z,20.50
2023-05-31T18:59:30.144Z,20.50
2023-05-31T19:01:57.719Z,20.40
2023-05-31T19:04:24.963Z,20.30
2023-05-31T19:06:52.842Z,20.20
2023-05-31T19:09:20.135Z,20.20
2023-05-31T19:11:50.331Z,20.10
2023-05-31T19:14:17.610Z,20.00
2023-05-31T19:16:44.734Z,20.00
2023-05-31T19:19:12.195Z,19.90
2023-05-31T19:21:39.150Z,19.90
2023-05-31T19:24:06.692Z,19.80
2023-05-31T19:26:33.619Z,19.80
2023-05-31T19:29:00.591Z,19.70
2023-05-31T19:31:28.835Z,19.60
2023-05-31T19:33:58.171Z,19.60
2023-05-31T19:36:26.257Z,19.50
2023-05-31T19:38:53.251Z,19.40
2023-05-31T19:41:20.150Z,19.40
2023-05-31T19:43:46.963Z,19.30
2023-05-31T19:46:21.805Z,19.30
2023-05-31T19:48:48.668Z,19.20
2023-05-31T19:51:15.611Z,19.20
2023-05-31T19:53:42.447Z,19.20
2023-05-31T19:56:09.549Z,19.10
2023-05-31T19:58:36.473Z,19.10
2023-05-31T20:01:04.647Z,19.00
2023-05-31T20:03:32.026Z,19.00
2023-05-31T20:05:59.506Z,19.00
2023-05-31T20:08:26.934Z,19.00
2023-05-31T20:10:53.879Z,19.00
2023-05-31T20:13:21.807Z,18.90
2023-05-31T20:15:48.593Z,18.90
2023-05-31T20:18:16.235Z,18.90
2023-05-31T20:20:43.089Z,18.80
2023-05-31T20:23:09.878Z,18.80
2023-05-31T20:25:36.732Z,18.80
2023-05-31T20:28:03.760Z,18.70
2023-05-31T20:30:30.507Z,18.60
2023-05-31T20:32:57.297Z,18.60
2023-05-31T20:35:24.140Z,18.50
2023-05-31T20:37:50.938Z,18.50
2023-05-31T20:40:17.818Z,18.40
2023-05-31T20:42:44.596Z,18.30
2023-05-31T20:45:11.593Z,18.30
2023-05-31T20:47:38.563Z,18.20
2023-05-31T20:50:06.048Z,18.10
2023-05-31T20:52:32.868Z,18.10
2023-05-31T20:54:59.677Z,18.00
2023-05-31T20:57:26.987Z,17.90
2023-05-31T20:59:54.926Z,17.90
2023-05-31T21:02:21.735Z,17.80
2023-05-31T21:04:48.633Z,17.70
2023-05-31T21:07:15.518Z,17.60
2023-05-31T21:09:42.433Z,17.50
2023-05-31T21:12:11.677Z,17.40
2023-05-31T21:14:38.508Z,17.40
2023-05-31T21:17:05.354Z,17.30
2023-05-31T21:19:32.225Z,17.20
2023-05-31T21:21:59.058Z,17.20
2023-05-31T21:24:26.161Z,17.10
2023-05-31T21:26:53.000Z,17.00
2023-05-31T21:29:20.039Z,17.00
2023-05-31T21:31:47.526Z,16.90
2023-05-31T21:34:14.378Z,16.80
2023-05-31T21:36:41.304Z,16.80
2023-05-31T21:39:08.031Z,16.80
2023-05-31T21:41:34.817Z,16.70
2023-05-31T21:44:01.604Z,16.70
2023-05-31T21:46:28.412Z,16.70
2023-05-31T21:48:55.282Z,16.60
2023-05-31T21:51:22.129Z,16.60
2023-05-31T21:53:49.046Z,16.60
2023-05-31T21:56:15.925Z,16.50
2023-05-31T21:58:42.714Z,16.50
2023-05-31T22:01:09.593Z,16.40
2023-05-31T22:03:36.429Z,16.40
2023-05-31T22:06:03.329Z,16.30
2023-05-31T22:08:30.181Z,16.20
2023-05-31T22:10:57.014Z,16.10
2023-05-31T22:13:23.875Z,16.00
2023-05-31T22:15:53.263Z,16.00
2023-05-31T22:18:22.852Z,15.90
2023-05-31T22:20:57.774Z,15.90
2023-05-31T22:23:25.475Z,15.80
2023-05-31T22:25:54.466Z,15.80
2023-05-31T22:28:21.935Z,15.80
2023-05-31T22:30:49.285Z,15.80
2023-05-31T22:33:16.192Z,15.80
2023-05-31T22:35:43.000Z,15.80
2023-05-31T22:38:09.838Z,15.80
2023-05-31T22:40:37.723Z,15.70
2023-05-31T22:43:05.172Z,15.80
2023-05-31T22:45:32.090Z,15.80
2023-05-31T22:47:59.682Z,15.80
2023-05-31T22:50:27.271Z,15.80
2023-05-31T22:52:54.616Z,15.80
2023-05-31T22:55:22.114Z,15.80
2023-05-31T22:57:48.899Z,15.90
2023-05-31T23:00:16.201Z,15.80
2023-05-31T23:02:44.184Z,15.80
2023-05-31T23:05:12.109Z,15.80
2023-05-31T23:07:42.788Z,15.80
2023-05-31T23:10:11.547Z,15.80
2023-05-31T23:12:38.515Z,15.80
2023-05-31T23:15:06.867Z,15.70
2023-05-31T23:17:37.660Z,15.70
2023-05-31T23:20:13.437Z,15.70
2023-05-31T23:22:45.556Z,15.60
2023-05-31T23:25:13.901Z,15.60
2023-05-31T23:27:42.172Z,15.60
2023-05-31T23:30:11.174Z,15.60
2023-05-31T23:32:38.915Z,15.60
2023-05-31T23:35:06.336Z,15.50
2023-05-31T23:37:33.374Z,15.50
2023-05-31T23:40:01.198Z,15.40
2023-05-31T23:42:28.371Z,15.40
2023-05-31T23:44:55.173Z,15.30
2023-05-31T23:47:21.987Z,15.20
2023-05-31T23:49:48.836Z,15.20
2023-05-31T23:52:15.599Z,15.10
2023-05-31T23:54:42.562Z,15.10
2023-05-31T23:57:09.499Z,15.00
2023-05-31T23:59:36.322Z,15.00
